Time;durP1;ratioP1;P1;durP2;ratioP2;P2;SDS_P1;SDS_P2;PMS_P1;PMS_P2;Temp;Humidity;BMP_temperature;BMP_pressure;BME280_temperature;BME280_humidity;BME280_pressure;Samples;Min_cycle;Max_cycle;Signal;HPM_P1;HPM_P2
2022/12/04 00:02:11;;;;;;;31.40;18.77;;;;;7.40;98625.00;;;;16702496;28;20220;-72
2022/12/04 00:10:14;;;;;;;32.37;22.67;;;;;7.80;98626.00;;;;16697863;28;20229;-70
2022/12/04 00:18:18;;;;;;;33.13;20.73;;;;;8.10;98617.00;;;;16709345;28;20543;-71
2022/12/04 00:26:21;;;;;;;32.07;19.50;;;;;8.10;98610.00;;;;16682385;28;20227;-70
2022/12/04 00:34:27;;;;;;;28.90;19.30;;;;;8.00;98597.00;;;;16711540;28;20211;-71
2022/12/04 00:42:30;;;;;;;24.13;17.50;;;;;7.70;98600.00;;;;16710291;28;20228;-70
2022/12/04 00:50:34;;;;;;;25.23;16.37;;;;;7.70;98610.00;;;;16707775;28;20235;-70
2022/12/04 00:58:36;;;;;;;22.93;17.00;;;;;7.90;98589.00;;;;16702035;28;20224;-70
2022/12/04 01:06:46;;;;;;;25.10;18.00;;;;;7.10;98611.00;;;;16708542;28;20231;-70
2022/12/04 01:14:48;;;;;;;24.93;16.60;;;;;7.40;98594.00;;;;16708208;28;20204;-71
2022/12/04 01:22:52;;;;;;;22.90;16.20;;;;;7.90;98589.00;;;;16699133;28;20235;-71
2022/12/04 01:30:59;;;;;;;21.47;16.67;;;;;7.70;98586.00;;;;16711450;28;20221;-71
2022/12/04 01:39:03;;;;;;;22.57;15.90;;;;;7.60;98586.00;;;;16691825;28;20221;-71
2022/12/04 01:47:06;;;;;;;22.23;15.27;;;;;7.90;98585.00;;;;16690642;28;20712;-71
2022/12/04 01:55:10;;;;;;;22.43;14.53;;;;;8.10;98581.00;;;;16706760;28;20764;-72
2022/12/04 02:03:13;;;;;;;24.80;16.73;;;;;6.70;98606.00;;;;16725298;28;20218;-70
2022/12/04 02:11:27;;;;;;;25.93;18.47;;;;;6.80;98596.00;;;;16708237;28;20224;-70
2022/12/04 02:20:00;;;;;;;25.10;18.43;;;;;6.90;98582.00;;;;16685420;28;20302;-70
2022/12/04 02:28:09;;;;;;;27.40;20.03;;;;;7.40;98569.00;;;;16708146;28;20223;-71
2022/12/04 02:36:15;;;;;;;30.97;20.80;;;;;7.30;98576.00;;;;16715431;28;20216;-70
2022/12/04 02:44:23;;;;;;;32.20;21.97;;;;;7.00;98570.00;;;;16716607;28;20226;-70
2022/12/04 02:52:29;;;;;;;30.53;19.73;;;;;7.00;98567.00;;;;16713134;28;20225;-70
2022/12/04 03:00:33;;;;;;;28.20;19.80;;;;;6.80;98558.00;;;;16717321;28;20230;-71
2022/12/04 03:08:39;;;;;;;29.90;18.47;;;;;6.60;98571.00;;;;16716908;28;20232;-69
2022/12/04 03:16:43;;;;;;;27.37;19.03;;;;;6.90;98552.00;;;;16686204;28;20229;-70
2022/12/04 03:24:48;;;;;;;26.10;18.33;;;;;6.80;98549.00;;;;16701105;28;20244;-70
2022/12/04 03:32:57;;;;;;;26.77;19.03;;;;;7.50;98542.00;;;;16713350;28;20236;-71
2022/12/04 03:41:03;;;;;;;30.77;21.13;;;;;7.70;98528.00;;;;16717913;28;20225;-71
2022/12/04 03:49:11;;;;;;;31.10;20.50;;;;;6.90;98546.00;;;;16719390;23;20262;-49
2022/12/04 03:57:16;;;;;;;31.03;19.63;;;;;7.50;98527.00;;;;16677523;28;20225;-47
2022/12/04 04:05:21;;;;;;;24.40;17.50;;;;;6.90;98543.00;;;;16688830;28;20842;-47
2022/12/04 04:30:10;;;;;;;26.43;18.60;;;;;7.20;98576.00;;;;16665152;28;20205;-47
2022/12/04 04:38:18;;;;;;;26.20;16.53;;;;;6.80;98576.00;;;;16699096;28;20223;-47
2022/12/04 04:46:25;;;;;;;20.43;14.60;;;;;7.20;98566.00;;;;16682921;28;20357;-48
2022/12/04 04:54:30;;;;;;;22.07;16.30;;;;;7.10;98559.00;;;;16702271;28;20217;-48
2022/12/04 05:02:33;;;;;;;26.40;16.93;;;;;7.20;98572.00;;;;16714118;28;20227;-49
2022/12/04 05:10:37;;;;;;;21.27;14.20;;;;;6.50;98579.00;;;;16709951;28;20239;-47
2022/12/04 05:19:52;;;;;;;23.23;15.30;;;;;6.50;98581.00;;;;16688560;28;20365;-48
2022/12/04 05:27:06;;;;;;;22.13;14.90;;;;;6.80;98567.00;;;;16689465;28;20727;-48
2022/12/04 05:35:09;;;;;;;21.30;15.63;;;;;6.50;98570.00;;;;16710716;28;20223;-47
2022/12/04 05:43:15;;;;;;;23.23;14.53;;;;;7.20;98564.00;;;;16711063;28;20223;-49
2022/12/04 05:51:18;;;;;;;24.17;15.20;;;;;6.70;98556.00;;;;16704705;28;20672;-48
2022/12/04 05:59:21;;;;;;;22.53;14.47;;;;;6.80;98563.00;;;;16701300;28;20212;-47
2022/12/04 06:07:24;;;;;;;24.03;14.13;;;;;6.90;98567.00;;;;16702273;28;20280;-47
2022/12/04 06:15:28;;;;;;;23.17;15.13;;;;;7.50;98562.00;;;;16711617;28;21025;-47
2022/12/04 06:23:32;;;;;;;24.03;15.77;;;;;7.60;98557.00;;;;16691947;28;20339;-47
2022/12/04 06:31:36;;;;;;;24.30;16.13;;;;;7.50;98551.00;;;;16697495;28;20233;-47
2022/12/04 06:39:39;;;;;;;22.77;15.20;;;;;7.60;98552.00;;;;16695744;28;20259;-48
2022/12/04 06:47:43;;;;;;;23.60;15.07;;;;;6.90;98567.00;;;;16702268;28;20313;-48
2022/12/04 06:55:48;;;;;;;23.60;14.87;;;;;7.30;98565.00;;;;16693994;28;20262;-47
2022/12/04 07:03:52;;;;;;;21.27;15.00;;;;;7.20;98563.00;;;;16675416;28;20694;-48
2022/12/04 07:11:55;;;;;;;21.63;14.40;;;;;7.40;98561.00;;;;16701336;28;20224;-47
2022/12/04 07:20:01;;;;;;;20.40;12.67;;;;;7.10;98561.00;;;;16690176;28;20572;-48
2022/12/04 07:28:03;;;;;;;20.67;15.33;;;;;7.80;98558.00;;;;16695860;28;20235;-48
2022/12/04 07:36:10;;;;;;;20.40;14.03;;;;;7.80;98559.00;;;;16684349;28;20264;-47
2022/12/04 07:44:15;;;;;;;23.10;13.73;;;;;7.60;98551.00;;;;16710184;28;20953;-47
2022/12/04 07:52:19;;;;;;;20.30;14.07;;;;;7.10;98577.00;;;;16723956;23;20258;-47
2022/12/04 08:00:21;;;;;;;20.57;13.83;;;;;7.40;98569.00;;;;16705735;28;20216;-47
2022/12/04 08:08:25;;;;;;;17.30;12.00;;;;;8.00;98561.00;;;;16637392;28;20217;-47
2022/12/04 08:16:30;;;;;;;21.53;16.20;;;;;8.50;98554.00;;;;16641708;28;20218;-48
2022/12/04 08:24:33;;;;;;;26.67;15.57;;;;;8.10;98558.00;;;;16617605;28;20235;-47
2022/12/04 08:32:38;;;;;;;22.37;14.97;;;;;8.70;98562.00;;;;16633196;28;20732;-47
2022/12/04 08:40:42;;;;;;;22.73;15.57;;;;;8.70;98577.00;;;;16628537;28;20194;-47
2022/12/04 08:48:45;;;;;;;21.83;14.37;;;;;8.10;98574.00;;;;16628271;28;20424;-48
2022/12/04 08:56:49;;;;;;;24.40;16.30;;;;;7.90;98599.00;;;;16632538;28;20290;-48
2022/12/04 09:04:51;;;;;;;20.80;15.60;;;;;7.40;98607.00;;;;16637309;28;20322;-48
2022/12/04 09:12:58;;;;;;;19.33;13.23;;;;;11.70;98563.00;;;;16638612;28;20221;-45
2022/12/04 09:21:02;;;;;;;20.87;15.80;;;;;14.00;98551.00;;;;16636888;28;20204;-49
2022/12/04 09:29:06;;;;;;;25.77;16.57;;;;;8.90;98564.00;;;;16628435;28;20246;-45
2022/12/04 09:37:11;;;;;;;24.27;17.87;;;;;8.80;98544.00;;;;16649554;28;20230;-46
2022/12/04 09:45:17;;;;;;;22.10;15.07;;;;;8.80;98541.00;;;;16641148;28;20774;-46
2022/12/04 09:53:22;;;;;;;23.13;16.57;;;;;7.90;98520.00;;;;16646047;28;20248;-46
2022/12/04 10:01:29;;;;;;;23.20;16.50;;;;;7.80;98512.00;;;;16630181;28;20206;-48
2022/12/04 10:09:39;;;;;;;24.10;15.77;;;;;7.30;98497.00;;;;16634117;28;20276;-48
2022/12/04 10:18:10;;;;;;;25.63;16.93;;;;;7.10;98510.00;;;;16630390;28;20304;-48
2022/12/04 10:26:16;;;;;;;34.70;19.47;;;;;7.40;98502.00;;;;16621959;28;20616;-48
2022/12/04 10:34:23;;;;;;;33.53;21.00;;;;;7.70;98508.00;;;;16630147;28;20229;-47
2022/12/04 10:42:32;;;;;;;30.40;20.00;;;;;8.20;98526.00;;;;16643098;28;20264;-48
2022/12/04 10:50:36;;;;;;;31.40;20.97;;;;;8.00;98524.00;;;;16641461;28;20237;-48
2022/12/04 10:58:39;;;;;;;21.00;16.50;;;;;7.90;98511.00;;;;16635833;28;20218;-48
2022/12/04 11:06:43;;;;;;;22.20;15.30;;;;;8.10;98503.00;;;;16630888;28;20238;-48
2022/12/04 11:14:45;;;;;;;21.73;15.93;;;;;8.00;98500.00;;;;16640836;28;20246;-48
2022/12/04 11:22:52;;;;;;;22.47;15.93;;;;;7.50;98504.00;;;;16639052;28;20245;-47
2022/12/04 11:30:56;;;;;;;24.00;16.00;;;;;7.40;98475.00;;;;16638602;28;20225;-48
2022/12/04 11:39:07;;;;;;;23.23;15.20;;;;;7.80;98499.00;;;;16623248;28;20214;-48
2022/12/04 11:47:17;;;;;;;30.87;19.90;;;;;8.40;98509.00;;;;16641224;28;20238;-47
2022/12/04 11:55:25;;;;;;;24.10;15.50;;;;;8.10;98503.00;;;;16599291;28;20789;-48
2022/12/04 12:03:33;;;;;;;23.90;16.67;;;;;7.10;98482.00;;;;16614998;28;20229;-48
2022/12/04 12:11:40;;;;;;;22.10;14.53;;;;;6.60;98480.00;;;;16633283;28;20213;-48
2022/12/04 12:20:02;;;;;;;22.97;14.50;;;;;6.70;98464.00;;;;16635006;28;20267;-47
2022/12/04 12:28:20;;;;;;;26.13;15.40;;;;;6.50;98470.00;;;;16644492;28;20231;-47
2022/12/04 12:36:25;;;;;;;24.90;17.57;;;;;6.90;98455.00;;;;16616471;28;20789;-48
2022/12/04 12:44:34;;;;;;;22.67;16.37;;;;;7.10;98466.00;;;;16619369;28;20277;-47
2022/12/04 12:52:41;;;;;;;21.27;14.73;;;;;8.20;98453.00;;;;16631667;28;20844;-47
2022/12/04 13:00:49;;;;;;;23.43;16.40;;;;;7.60;98435.00;;;;16619412;28;20214;-48
2022/12/04 13:09:00;;;;;;;23.60;15.23;;;;;6.80;98438.00;;;;16595761;28;20262;-48
2022/12/04 13:17:08;;;;;;;29.33;16.57;;;;;7.30;98454.00;;;;16618049;28;20217;-48
2022/12/04 13:25:27;;;;;;;25.37;16.87;;;;;8.30;98474.00;;;;16618196;28;20220;-48
2022/12/04 13:33:52;;;;;;;24.13;16.07;;;;;7.20;98485.00;;;;16633426;28;20308;-51
2022/12/04 13:41:58;;;;;;;27.47;17.53;;;;;6.90;98466.00;;;;16627712;28;20206;-48
2022/12/04 13:50:27;;;;;;;20.97;15.00;;;;;7.40;98472.00;;;;16630026;28;20301;-48
2022/12/04 13:58:32;;;;;;;28.93;17.90;;;;;6.70;98461.00;;;;16601093;28;20244;-47
2022/12/04 14:06:38;;;;;;;22.73;14.30;;;;;6.50;98464.00;;;;16624211;28;20314;-48
2022/12/04 14:14:43;;;;;;;24.43;14.60;;;;;6.30;98441.00;;;;16622741;28;20709;-48
2022/12/04 14:22:47;;;;;;;25.00;16.40;;;;;7.20;98461.00;;;;16649068;28;20230;-48
2022/12/04 14:31:02;;;;;;;26.23;17.40;;;;;8.20;98469.00;;;;16645005;28;20241;-48
2022/12/04 14:39:11;;;;;;;22.20;16.57;;;;;6.90;98467.00;;;;16644770;28;20220;-48
2022/12/04 14:47:19;;;;;;;26.50;15.80;;;;;7.50;98468.00;;;;16639706;28;20229;-47
2022/12/04 14:55:30;;;;;;;23.77;15.30;;;;;7.40;98460.00;;;;16645521;28;20568;-48
2022/12/04 15:03:36;;;;;;;22.90;15.90;;;;;8.20;98460.00;;;;16626727;28;20234;-47
2022/12/04 15:20:11;;;;;;;28.30;17.60;;;;;8.10;98487.00;;;;16637991;28;20234;-47
2022/12/04 15:28:18;;;;;;;30.20;17.33;;;;;8.50;98487.00;;;;16636931;28;20226;-48
2022/12/04 15:36:29;;;;;;;28.50;17.57;;;;;7.60;98492.00;;;;16640354;28;20631;-47
2022/12/04 15:44:35;;;;;;;28.70;16.00;;;;;8.10;98477.00;;;;16628634;28;20241;-47
2022/12/04 15:52:38;;;;;;;29.27;16.43;;;;;7.20;98479.00;;;;16626604;28;20253;-47
2022/12/04 16:00:42;;;;;;;26.53;16.90;;;;;8.40;98469.00;;;;16608284;28;20554;-47
2022/12/04 16:08:46;;;;;;;27.10;16.80;;;;;7.10;98466.00;;;;16615990;28;20369;-47
2022/12/04 16:16:52;;;;;;;28.47;17.30;;;;;7.30;98452.00;;;;16624437;28;20223;-47
2022/12/04 16:24:55;;;;;;;29.00;18.30;;;;;8.00;98446.00;;;;16599525;28;20310;-47
2022/12/04 16:32:59;;;;;;;32.30;18.40;;;;;8.60;98448.00;;;;16607182;28;20312;-47
2022/12/04 16:41:02;;;;;;;28.60;18.00;;;;;7.20;98446.00;;;;16596365;28;20388;-47
2022/12/04 16:49:06;;;;;;;32.13;17.57;;;;;7.40;98423.00;;;;16632421;28;20259;-48
2022/12/04 16:57:09;;;;;;;39.43;21.20;;;;;7.40;98430.00;;;;16632061;28;20230;-48
2022/12/04 17:05:19;;;;;;;30.53;20.67;;;;;7.30;98413.00;;;;16630148;28;20232;-49
2022/12/04 17:13:22;;;;;;;33.57;20.10;;;;;7.10;98463.00;;;;16613659;28;20230;-49
2022/12/04 17:21:26;;;;;;;34.17;18.63;;;;;7.00;98473.00;;;;16605307;28;20253;-48
2022/12/04 17:29:29;;;;;;;28.87;17.90;;;;;7.50;98482.00;;;;16607359;28;20233;-48
2022/12/04 17:37:34;;;;;;;35.53;20.13;;;;;7.80;98498.00;;;;16620497;28;20350;-48
2022/12/04 17:45:39;;;;;;;36.63;19.57;;;;;6.90;98500.00;;;;16639064;23;20288;-68
2022/12/04 17:53:43;;;;;;;35.70;19.40;;;;;7.00;98496.00;;;;16680067;28;20228;-66
2022/12/04 18:01:46;;;;;;;35.00;20.50;;;;;7.00;98496.00;;;;16690673;28;20313;-66
2022/12/04 18:09:49;;;;;;;35.10;19.70;;;;;6.90;98495.00;;;;16704147;28;20227;-66
2022/12/04 18:17:52;;;;;;;33.10;19.60;;;;;6.80;98494.00;;;;16729542;28;20513;-66
2022/12/04 18:25:57;;;;;;;37.30;23.93;;;;;6.80;98511.00;;;;16686239;28;20228;-67
2022/12/04 18:33:59;;;;;;;39.70;24.73;;;;;7.50;98502.00;;;;16691544;28;20253;-66
2022/12/04 18:42:04;;;;;;;78.80;45.93;;;;;7.70;98503.00;;;;16698713;28;20243;-67
2022/12/04 18:50:07;;;;;;;36.93;24.60;;;;;8.00;98504.00;;;;16698699;28;20229;-66
2022/12/04 18:58:12;;;;;;;33.70;20.20;;;;;8.20;98508.00;;;;16695153;28;20244;-66
2022/12/04 19:06:15;;;;;;;32.40;17.70;;;;;8.10;98519.00;;;;16684606;28;20292;-67
2022/12/04 19:14:19;;;;;;;37.97;23.03;;;;;8.10;98523.00;;;;16679102;28;20225;-67
2022/12/04 19:22:22;;;;;;;29.90;19.40;;;;;8.10;98528.00;;;;16679934;28;20209;-67
2022/12/04 19:30:26;;;;;;;34.13;20.63;;;;;7.90;98538.00;;;;16693295;28;20226;-66
2022/12/04 19:38:30;;;;;;;30.70;18.80;;;;;8.10;98559.00;;;;16659134;28;20307;-66
2022/12/04 19:46:33;;;;;;;32.83;20.33;;;;;8.30;98565.00;;;;16669880;28;20683;-67
2022/12/04 19:54:36;;;;;;;33.33;20.63;;;;;8.20;98563.00;;;;16665689;28;20213;-68
2022/12/04 20:02:40;;;;;;;39.10;21.83;;;;;8.10;98571.00;;;;16681381;28;20292;-67
2022/12/04 20:10:42;;;;;;;33.40;19.70;;;;;7.80;98577.00;;;;16665679;28;20279;-67
2022/12/04 20:18:46;;;;;;;36.23;23.20;;;;;7.90;98574.00;;;;16682964;28;20586;-68
2022/12/04 20:26:49;;;;;;;33.97;21.33;;;;;7.80;98592.00;;;;16693509;28;20299;-67
2022/12/04 20:34:53;;;;;;;37.80;23.73;;;;;8.00;98593.00;;;;16693984;28;20280;-67
2022/12/04 20:42:55;;;;;;;32.43;20.60;;;;;8.30;98584.00;;;;16693585;28;20236;-67
2022/12/04 20:51:01;;;;;;;33.03;19.83;;;;;8.60;98570.00;;;;16697268;28;20257;-67
2022/12/04 20:59:06;;;;;;;37.30;21.90;;;;;8.30;98579.00;;;;16686256;28;20305;-67
2022/12/04 21:07:10;;;;;;;33.27;19.87;;;;;8.40;98583.00;;;;16689992;28;20596;-67
2022/12/04 21:23:34;;;;;;;38.17;19.97;;;;;8.60;98582.00;;;;16671751;28;20321;-67
2022/12/04 21:31:37;;;;;;;35.60;21.60;;;;;8.60;98580.00;;;;16690633;28;20828;-67
2022/12/04 21:39:42;;;;;;;32.33;19.43;;;;;8.60;98584.00;;;;16682042;28;20215;-67
2022/12/04 21:47:45;;;;;;;31.40;19.73;;;;;8.70;98585.00;;;;16675631;28;20837;-67
2022/12/04 21:55:50;;;;;;;33.43;21.07;;;;;8.60;98600.00;;;;16672184;28;20236;-67
2022/12/04 22:03:52;;;;;;;30.63;17.70;;;;;8.60;98614.00;;;;16668478;28;20305;-67
2022/12/04 22:11:56;;;;;;;29.07;19.80;;;;;8.50;98601.00;;;;16716379;28;20240;-67
2022/12/04 22:19:59;;;;;;;35.27;19.67;;;;;8.60;98616.00;;;;16722948;28;20764;-68
2022/12/04 22:28:03;;;;;;;21.37;15.33;;;;;8.10;98638.00;;;;16714157;28;20279;-68
2022/12/04 22:36:07;;;;;;;26.83;17.60;;;;;7.60;98642.00;;;;16702732;28;20206;-68
2022/12/04 22:44:17;;;;;;;26.33;17.27;;;;;7.60;98643.00;;;;16714033;28;20235;-67
2022/12/04 22:52:20;;;;;;;25.43;16.70;;;;;7.10;98654.00;;;;16702658;28;20604;-67
2022/12/04 23:00:24;;;;;;;21.20;13.50;;;;;7.10;98649.00;;;;16714192;28;20688;-67
2022/12/04 23:08:27;;;;;;;20.77;12.57;;;;;6.40;98660.00;;;;16710248;28;20260;-67
2022/12/04 23:16:33;;;;;;;22.83;15.70;;;;;7.20;98654.00;;;;16715097;28;20455;-67
2022/12/04 23:24:37;;;;;;;25.90;15.90;;;;;7.90;98659.00;;;;16715043;28;20586;-67
2022/12/04 23:32:41;;;;;;;22.60;15.63;;;;;8.30;98678.00;;;;16709427;28;20704;-67
2022/12/04 23:40:43;;;;;;;23.20;15.60;;;;;8.30;98696.00;;;;16687791;28;20307;-67
2022/12/04 23:48:48;;;;;;;27.60;17.17;;;;;8.00;98724.00;;;;16703095;28;20269;-67
2022/12/04 23:56:50;;;;;;;20.40;14.33;;;;;8.00;98730.00;;;;16704089;28;20299;-67
